Argus, California
Current Conditions -  °F | °C
As of 12:55 AM on Sunday 21 Dec 2014 (Local Time) from KBYS Reporting Station
Clear Clear  
Wind Chill:   Ceiling: Unl
Heat Index:   Visibility: 10mi
Dew Point:   Wind: 7mph
Humidity: 76%   Direction: 30°NNE
Pressure: 30.17"   Gusts: NA
Location:  35.6496°N, 117.375°W
Report Text: KBYS 210855Z AUTO 03006KT 10SM CLR 07/03 A3017 RMK AO2 SLP231 T00690030 52004 $
Loading
Personal Weather Stations






























Interactive Weather Map New forecast layout! Learn more

10-Day Weather Forecast

Advertisements
Track Severe Weather on mobile